Airport ID:K00U
Update Time (UTC):27/09/2021 04:28
Wind Speed (Knots):6
Wind Direction (Magnetic):140
Temperature (°C):14
Dew Point (°C):-1
Humidity (%):36
Altimeter (inHg):29.79
Density Altitude (Feet):
Visibility:10+
Clouds (Hundreds of feet):FEW047 FEW055
Present Weather:
METAR:METAR K00U 270425Z AUTO 15004KT 10SM FEW047 FEW055 15/M01 A2978 RMK A01

The data displayed is for advisory purposes only and is not to be used for flight planning or operations.